PWSweather.com
Personal Weather Stations
Station Observations
KKYCRABO2
Cedar Creek Lake 840 Ky. Hwy. 39 N, Crab Orchard, KY 40419

Cedar Creek Lake 840 Ky. Hwy. 39 NCrab Orchard, KY 40419

Lat: 37.4736234544238, Lon: -84.5120286941528

Elevation: 952

Station Type: TYCON Power TP1080WC Pro

http://kbweather.net/

Latest ConditionsUpdated 3:00:05 PM EST Friday, Jan 30, 2015
Currently Today's Max Today's Min Today's Average
Temperature 39.2°F4.0°C 43.3°F6.3°C 31.3°F-0.4°C 35.2°F1.8°C
Dew Point 14.0°F-10.0°C 28.4°F-2.0°C 14.0°F-10.0°C 23.2°F-4.9°C
Winds 2.5 mph NNE4.0 kmh NNE 4.3 mph NNE6.9 kmh NNE - 1.9 mph 3.1 kmh
Wind Gusts 8.1 mph13.0 kmh 11.9 mph19.2 kmh - -
Humidity 35% 79% 34% 63%
Pressure 29.20 in988.8 mb 29.26 in990.9 mb 29.06 in984.1 mb -
Hour Temp Dew Point Humidity Winds Wind Gusts Pressure Precip Precip Rate Daily Precip Total
03:00 PM 39.2°F4.0°C 14.0°F-10.0°C 35% 2.5 mph NNE4.0 kmh NNE 8.1 mph13.0 kmh 29.20 in988.8 mb 0.00 in0.0 mm 0.00 in/hr0.0 mm/hr 0.00 in0.0 mm
02:55 PM 39.6°F4.2°C 14.0°F-10.0°C 35% 2.0 mph NNE3.2 kmh NNE 8.1 mph13.0 kmh 29.20 in988.8 mb 0.00 in0.0 mm 0.00 in/hr0.0 mm/hr 0.00 in0.0 mm
02:50 PM 40.3°F4.6°C 14.0°F-10.0°C 35% 2.0 mph N3.2 kmh N 3.6 mph5.8 kmh 29.20 in988.8 mb 0.00 in0.0 mm 0.00 in/hr0.0 mm/hr 0.00 in0.0 mm
02:45 PM 40.5°F4.7°C 15.8°F-9.0°C 36% 2.5 mph N4.0 kmh N 7.8 mph12.6 kmh 29.20 in988.8 mb 0.00 in0.0 mm 0.00 in/hr0.0 mm/hr 0.00 in0.0 mm
02:40 PM 40.3°F4.6°C 15.8°F-9.0°C 37% 1.1 mph NE1.8 kmh NE 7.8 mph12.6 kmh 29.20 in988.8 mb 0.00 in0.0 mm 0.00 in/hr0.0 mm/hr 0.00 in0.0 mm
02:35 PM 40.5°F4.7°C 15.8°F-9.0°C 37% 3.1 mph NE5.0 kmh NE 7.8 mph12.6 kmh 29.20 in988.8 mb 0.00 in0.0 mm 0.00 in/hr0.0 mm/hr 0.00 in0.0 mm
02:30 PM 40.8°F4.9°C 15.8°F-9.0°C 35% 2.0 mph N3.2 kmh N 4.0 mph6.4 kmh 29.20 in988.8 mb 0.00 in0.0 mm 0.00 in/hr0.0 mm/hr 0.00 in0.0 mm
02:25 PM 41.2°F5.1°C 15.8°F-9.0°C 34% 2.7 mph N4.3 kmh N 4.0 mph6.4 kmh 29.20 in988.8 mb 0.00 in0.0 mm 0.00 in/hr0.0 mm/hr 0.00 in0.0 mm
02:20 PM 41.4°F5.2°C 15.8°F-9.0°C 35% 1.3 mph N2.1 kmh N 9.6 mph15.4 kmh 29.20 in988.8 mb 0.00 in0.0 mm 0.00 in/hr0.0 mm/hr 0.00 in0.0 mm
02:15 PM 41.0°F5.0°C 15.8°F-9.0°C 34% 1.3 mph NNE2.1 kmh NNE 9.6 mph15.4 kmh 29.20 in988.8 mb 0.00 in0.0 mm 0.00 in/hr0.0 mm/hr 0.00 in0.0 mm
02:10 PM 41.2°F5.1°C 15.8°F-9.0°C 34% 2.5 mph N4.0 kmh N 5.4 mph8.7 kmh 29.23 in989.8 mb 0.00 in0.0 mm 0.00 in/hr0.0 mm/hr 0.00 in0.0 mm
02:05 PM 41.0°F5.0°C 15.8°F-9.0°C 34% 1.6 mph N2.6 kmh N 4.0 mph6.4 kmh 29.23 in989.8 mb 0.00 in0.0 mm 0.00 in/hr0.0 mm/hr 0.00 in0.0 mm
02:00 PM 41.5°F5.3°C 15.8°F-9.0°C 35% 1.1 mph N1.8 kmh N 4.0 mph6.4 kmh 29.23 in989.8 mb 0.00 in0.0 mm 0.00 in/hr0.0 mm/hr 0.00 in0.0 mm
01:55 PM 42.1°F5.6°C 15.8°F-9.0°C 35% 2.9 mph N4.7 kmh N 4.7 mph7.6 kmh 29.23 in989.8 mb 0.00 in0.0 mm 0.00 in/hr0.0 mm/hr 0.00 in0.0 mm
01:50 PM 43.3°F6.3°C 17.6°F-8.0°C 35% 2.7 mph N4.3 kmh N 4.7 mph7.6 kmh 29.23 in989.8 mb 0.00 in0.0 mm 0.00 in/hr0.0 mm/hr 0.00 in0.0 mm
01:45 PM 43.0°F6.1°C 17.6°F-8.0°C 35% 2.0 mph N3.2 kmh N 4.3 mph6.9 kmh 29.23 in989.8 mb 0.00 in0.0 mm 0.00 in/hr0.0 mm/hr 0.00 in0.0 mm
01:40 PM 43.0°F6.1°C 17.6°F-8.0°C 36% 2.5 mph N4.0 kmh N 4.0 mph6.4 kmh 29.23 in989.8 mb 0.00 in0.0 mm 0.00 in/hr0.0 mm/hr 0.00 in0.0 mm
01:35 PM 42.6°F5.9°C 19.4°F-7.0°C 38% 2.2 mph NNE3.5 kmh NNE 7.4 mph11.9 kmh 29.23 in989.8 mb 0.00 in0.0 mm 0.00 in/hr0.0 mm/hr 0.00 in0.0 mm
01:30 PM 41.7°F5.4°C 17.6°F-8.0°C 37% 2.7 mph NNE4.3 kmh NNE 8.1 mph13.0 kmh 29.23 in989.8 mb 0.00 in0.0 mm 0.00 in/hr0.0 mm/hr 0.00 in0.0 mm
01:25 PM 41.5°F5.3°C 17.6°F-8.0°C 38% 2.7 mph NNE4.3 kmh NNE 8.1 mph13.0 kmh 29.23 in989.8 mb 0.00 in0.0 mm 0.00 in/hr0.0 mm/hr 0.00 in0.0 mm
01:20 PM 40.1°F4.5°C 17.6°F-8.0°C 40% 2.5 mph N4.0 kmh N 5.8 mph9.3 kmh 29.23 in989.8 mb 0.00 in0.0 mm 0.00 in/hr0.0 mm/hr 0.00 in0.0 mm
01:15 PM 40.3°F4.6°C 19.4°F-7.0°C 41% 2.5 mph N4.0 kmh N 5.8 mph9.3 kmh 29.23 in989.8 mb 0.00 in0.0 mm 0.00 in/hr0.0 mm/hr 0.00 in0.0 mm
01:10 PM 42.4°F5.8°C 21.2°F-6.0°C 43% 1.1 mph NNE1.8 kmh NNE 3.4 mph5.5 kmh 29.26 in990.9 mb 0.00 in0.0 mm 0.00 in/hr0.0 mm/hr 0.00 in0.0 mm
01:05 PM 41.9°F5.5°C 21.2°F-6.0°C 42% 1.3 mph NNE2.1 kmh NNE 3.4 mph5.5 kmh 29.26 in990.9 mb 0.00 in0.0 mm 0.00 in/hr0.0 mm/hr 0.00 in0.0 mm
01:00 PM 41.7°F5.4°C 21.2°F-6.0°C 43% 2.7 mph N4.3 kmh N 5.4 mph8.7 kmh 29.26 in990.9 mb 0.00 in0.0 mm 0.00 in/hr0.0 mm/hr 0.00 in0.0 mm
12:55 PM 41.4°F5.2°C 21.2°F-6.0°C 45% 1.3 mph NNE2.1 kmh NNE 8.1 mph13.0 kmh 29.26 in990.9 mb 0.00 in0.0 mm 0.00 in/hr0.0 mm/hr 0.00 in0.0 mm
12:50 PM 40.3°F4.6°C 21.2°F-6.0°C 45% 2.2 mph NNE3.5 kmh NNE 8.1 mph13.0 kmh 29.26 in990.9 mb 0.00 in0.0 mm 0.00 in/hr0.0 mm/hr 0.00 in0.0 mm
12:45 PM 39.4°F4.1°C 21.2°F-6.0°C 46% 2.7 mph N4.3 kmh N 5.4 mph8.7 kmh 29.26 in990.9 mb 0.00 in0.0 mm 0.00 in/hr0.0 mm/hr 0.00 in0.0 mm
12:40 PM 38.3°F3.5°C 19.4°F-7.0°C 46% 1.6 mph NNE2.6 kmh NNE 6.3 mph10.1 kmh 29.26 in990.9 mb 0.00 in0.0 mm 0.00 in/hr0.0 mm/hr 0.00 in0.0 mm
12:35 PM 38.5°F3.6°C 19.4°F-7.0°C 46% 3.4 mph NNE5.5 kmh NNE 6.3 mph10.1 kmh 29.26 in990.9 mb 0.00 in0.0 mm 0.00 in/hr0.0 mm/hr 0.00 in0.0 mm
12:30 PM 37.8°F3.2°C 19.4°F-7.0°C 46% 1.3 mph N2.1 kmh N 3.8 mph6.1 kmh 29.26 in990.9 mb 0.00 in0.0 mm 0.00 in/hr0.0 mm/hr 0.00 in0.0 mm
12:25 PM 38.7°F3.7°C 19.4°F-7.0°C 46% 2.5 mph N4.0 kmh N 5.4 mph8.7 kmh 29.26 in990.9 mb 0.00 in0.0 mm 0.00 in/hr0.0 mm/hr 0.00 in0.0 mm
12:20 PM 39.6°F4.2°C 19.4°F-7.0°C 44% 2.5 mph NNE4.0 kmh NNE 8.5 mph13.7 kmh 29.26 in990.9 mb 0.00 in0.0 mm 0.00 in/hr0.0 mm/hr 0.00 in0.0 mm
12:15 PM 41.4°F5.2°C 21.2°F-6.0°C 45% 2.9 mph NE4.7 kmh NE 8.5 mph13.7 kmh 29.26 in990.9 mb 0.00 in0.0 mm 0.00 in/hr0.0 mm/hr 0.00 in0.0 mm
12:10 PM 41.5°F5.3°C 23.0°F-5.0°C 46% 2.5 mph NNE4.0 kmh NNE 6.5 mph10.5 kmh 29.26 in990.9 mb 0.00 in0.0 mm 0.00 in/hr0.0 mm/hr 0.00 in0.0 mm
12:05 PM 40.8°F4.9°C 23.0°F-5.0°C 48% 2.2 mph NNE3.5 kmh NNE 4.9 mph7.9 kmh 29.26 in990.9 mb 0.00 in0.0 mm 0.00 in/hr0.0 mm/hr 0.00 in0.0 mm
12:00 PM 39.6°F4.2°C 23.0°F-5.0°C 49% 2.5 mph N4.0 kmh N 3.8 mph6.1 kmh 29.26 in990.9 mb 0.00 in0.0 mm 0.00 in/hr0.0 mm/hr 0.00 in0.0 mm
11:55 AM 38.5°F3.6°C 21.2°F-6.0°C 50% 3.6 mph N5.8 kmh N 4.7 mph7.6 kmh 29.23 in989.8 mb 0.00 in0.0 mm 0.00 in/hr0.0 mm/hr 0.00 in0.0 mm
11:50 AM 38.3°F3.5°C 21.2°F-6.0°C 49% 2.0 mph N3.2 kmh N 6.5 mph10.5 kmh 29.23 in989.8 mb 0.00 in0.0 mm 0.00 in/hr0.0 mm/hr 0.00 in0.0 mm
11:45 AM 39.9°F4.4°C 23.0°F-5.0°C 51% 2.2 mph NE3.5 kmh NE 9.6 mph15.4 kmh 29.23 in989.8 mb 0.00 in0.0 mm 0.00 in/hr0.0 mm/hr 0.00 in0.0 mm
11:40 AM 39.6°F4.2°C 23.0°F-5.0°C 52% 2.7 mph NE4.3 kmh NE 9.6 mph15.4 kmh 29.23 in989.8 mb 0.00 in0.0 mm 0.00 in/hr0.0 mm/hr 0.00 in0.0 mm
11:35 AM 38.7°F3.7°C 23.0°F-5.0°C 52% 2.9 mph NE4.7 kmh NE 8.7 mph14.0 kmh 29.23 in989.8 mb 0.00 in0.0 mm 0.00 in/hr0.0 mm/hr 0.00 in0.0 mm
11:30 AM 37.4°F3.0°C 23.0°F-5.0°C 54% 4.3 mph NNE6.9 kmh NNE 8.7 mph14.0 kmh 29.23 in989.8 mb 0.00 in0.0 mm 0.00 in/hr0.0 mm/hr 0.00 in0.0 mm
11:25 AM 36.3°F2.4°C 21.2°F-6.0°C 53% 2.2 mph N3.5 kmh N 4.7 mph7.6 kmh 29.23 in989.8 mb 0.00 in0.0 mm 0.00 in/hr0.0 mm/hr 0.00 in0.0 mm
11:20 AM 36.0°F2.2°C 21.2°F-6.0°C 52% 2.7 mph N4.3 kmh N 3.8 mph6.1 kmh 29.23 in989.8 mb 0.00 in0.0 mm 0.00 in/hr0.0 mm/hr 0.00 in0.0 mm
11:15 AM 36.3°F2.4°C 21.2°F-6.0°C 51% 2.5 mph N4.0 kmh N 3.8 mph6.1 kmh 29.23 in989.8 mb 0.00 in0.0 mm 0.00 in/hr0.0 mm/hr 0.00 in0.0 mm
11:10 AM 36.7°F2.6°C 21.2°F-6.0°C 51% 2.0 mph N3.2 kmh N 4.7 mph7.6 kmh 29.23 in989.8 mb 0.00 in0.0 mm 0.00 in/hr0.0 mm/hr 0.00 in0.0 mm
11:05 AM 37.4°F3.0°C 21.2°F-6.0°C 50% 2.7 mph N4.3 kmh N 4.7 mph7.6 kmh 29.23 in989.8 mb 0.00 in0.0 mm 0.00 in/hr0.0 mm/hr 0.00 in0.0 mm
11:00 AM 37.9°F3.3°C 21.2°F-6.0°C 51% 1.3 mph N2.1 kmh N 7.2 mph11.6 kmh 29.23 in989.8 mb 0.00 in0.0 mm 0.00 in/hr0.0 mm/hr 0.00 in0.0 mm
10:55 AM 37.8°F3.2°C 21.2°F-6.0°C 51% 2.5 mph N4.0 kmh N 7.2 mph11.6 kmh 29.20 in988.8 mb 0.00 in0.0 mm 0.00 in/hr0.0 mm/hr 0.00 in0.0 mm
10:50 AM 38.1°F3.4°C 23.0°F-5.0°C 52% 3.8 mph N6.1 kmh N 6.5 mph10.5 kmh 29.20 in988.8 mb 0.00 in0.0 mm 0.00 in/hr0.0 mm/hr 0.00 in0.0 mm
10:45 AM 36.9°F2.7°C 21.2°F-6.0°C 53% 3.1 mph N5.0 kmh N 6.5 mph10.5 kmh 29.20 in988.8 mb 0.00 in0.0 mm 0.00 in/hr0.0 mm/hr 0.00 in0.0 mm
10:40 AM 36.1°F2.3°C 21.2°F-6.0°C 53% 1.6 mph N2.6 kmh N 3.4 mph5.5 kmh 29.20 in988.8 mb 0.00 in0.0 mm 0.00 in/hr0.0 mm/hr 0.00 in0.0 mm
10:35 AM 36.3°F2.4°C 21.2°F-6.0°C 53% 1.3 mph N2.1 kmh N 3.4 mph5.5 kmh 29.20 in988.8 mb 0.00 in0.0 mm 0.00 in/hr0.0 mm/hr 0.00 in0.0 mm
10:30 AM 36.0°F2.2°C 21.2°F-6.0°C 53% Calm Calm 4.5 mph7.2 kmh 29.20 in988.8 mb 0.00 in0.0 mm 0.00 in/hr0.0 mm/hr 0.00 in0.0 mm
10:25 AM 35.6°F2.0°C 21.2°F-6.0°C 52% 2.9 mph N4.7 kmh N 4.5 mph7.2 kmh 29.18 in988.1 mb 0.00 in0.0 mm 0.00 in/hr0.0 mm/hr 0.00 in0.0 mm
10:20 AM 35.8°F2.1°C 21.2°F-6.0°C 52% 2.2 mph N3.5 kmh N 4.7 mph7.6 kmh 29.18 in988.1 mb 0.00 in0.0 mm 0.00 in/hr0.0 mm/hr 0.00 in0.0 mm
10:15 AM 36.3°F2.4°C 21.2°F-6.0°C 51% 2.5 mph NNW4.0 kmh NNW 5.4 mph8.7 kmh 29.18 in988.1 mb 0.00 in0.0 mm 0.00 in/hr0.0 mm/hr 0.00 in0.0 mm
10:10 AM 36.7°F2.6°C 21.2°F-6.0°C 51% 2.9 mph NNW4.7 kmh NNW 5.4 mph8.7 kmh 29.20 in988.8 mb 0.00 in0.0 mm 0.00 in/hr0.0 mm/hr 0.00 in0.0 mm
10:05 AM 37.4°F3.0°C 21.2°F-6.0°C 50% 3.1 mph N5.0 kmh N 4.3 mph6.9 kmh 29.20 in988.8 mb 0.00 in0.0 mm 0.00 in/hr0.0 mm/hr 0.00 in0.0 mm
10:00 AM 38.5°F3.6°C 23.0°F-5.0°C 51% 2.5 mph N4.0 kmh N 4.3 mph6.9 kmh 29.20 in988.8 mb 0.00 in0.0 mm 0.00 in/hr0.0 mm/hr 0.00 in0.0 mm
09:55 AM 39.2°F4.0°C 23.0°F-5.0°C 52% 2.0 mph N3.2 kmh N 3.6 mph5.8 kmh 29.20 in988.8 mb 0.00 in0.0 mm 0.00 in/hr0.0 mm/hr 0.00 in0.0 mm
09:50 AM 39.0°F3.9°C 23.0°F-5.0°C 53% 2.2 mph N3.5 kmh N 3.4 mph5.5 kmh 29.20 in988.8 mb 0.00 in0.0 mm 0.00 in/hr0.0 mm/hr 0.00 in0.0 mm
09:45 AM 38.7°F3.7°C 23.0°F-5.0°C 55% 0.9 mph NNW1.4 kmh NNW 3.1 mph5.0 kmh 29.20 in988.8 mb 0.00 in0.0 mm 0.00 in/hr0.0 mm/hr 0.00 in0.0 mm
09:40 AM 37.9°F3.3°C 23.0°F-5.0°C 55% 2.2 mph N3.5 kmh N 3.6 mph5.8 kmh 29.20 in988.8 mb 0.00 in0.0 mm 0.00 in/hr0.0 mm/hr 0.00 in0.0 mm
09:35 AM 36.5°F2.5°C 24.8°F-4.0°C 59% 2.5 mph NNW4.0 kmh NNW 3.6 mph5.8 kmh 29.20 in988.8 mb 0.00 in0.0 mm 0.00 in/hr0.0 mm/hr 0.00 in0.0 mm
09:30 AM 35.4°F1.9°C 23.0°F-5.0°C 59% 1.3 mph NNW2.1 kmh NNW 3.6 mph5.8 kmh 29.20 in988.8 mb 0.00 in0.0 mm 0.00 in/hr0.0 mm/hr 0.00 in0.0 mm
09:25 AM 34.0°F1.1°C 21.2°F-6.0°C 59% 1.6 mph NNW2.6 kmh NNW 3.1 mph5.0 kmh 29.20 in988.8 mb 0.00 in0.0 mm 0.00 in/hr0.0 mm/hr 0.00 in0.0 mm
09:20 AM 33.8°F1.0°C 21.2°F-6.0°C 59% 1.1 mph N1.8 kmh N 2.0 mph3.2 kmh 29.20 in988.8 mb 0.00 in0.0 mm 0.00 in/hr0.0 mm/hr 0.00 in0.0 mm
09:15 AM 33.8°F1.0°C 21.2°F-6.0°C 60% 1.3 mph N2.1 kmh N 3.1 mph5.0 kmh 29.20 in988.8 mb 0.00 in0.0 mm 0.00 in/hr0.0 mm/hr 0.00 in0.0 mm
09:10 AM 33.6°F0.9°C 21.2°F-6.0°C 60% 0.9 mph N1.4 kmh N 3.4 mph5.5 kmh 29.20 in988.8 mb 0.00 in0.0 mm 0.00 in/hr0.0 mm/hr 0.00 in0.0 mm
09:05 AM 33.3°F0.7°C 21.2°F-6.0°C 60% Calm Calm 3.4 mph5.5 kmh 29.20 in988.8 mb 0.00 in0.0 mm 0.00 in/hr0.0 mm/hr 0.00 in0.0 mm
09:00 AM 33.3°F0.7°C 21.2°F-6.0°C 62% 2.0 mph NNW3.2 kmh NNW 3.4 mph5.5 kmh 29.20 in988.8 mb 0.00 in0.0 mm 0.00 in/hr0.0 mm/hr 0.00 in0.0 mm
08:55 AM 33.3°F0.7°C 21.2°F-6.0°C 62% 1.3 mph NNW2.1 kmh NNW 2.5 mph4.0 kmh 29.20 in988.8 mb 0.00 in0.0 mm 0.00 in/hr0.0 mm/hr 0.00 in0.0 mm
08:50 AM 33.3°F0.7°C 23.0°F-5.0°C 63% 1.3 mph NNW2.1 kmh NNW 3.1 mph5.0 kmh 29.20 in988.8 mb 0.00 in0.0 mm 0.00 in/hr0.0 mm/hr 0.00 in0.0 mm
08:45 AM 32.9°F0.5°C 23.0°F-5.0°C 63% 1.1 mph N1.8 kmh N 3.1 mph5.0 kmh 29.20 in988.8 mb 0.00 in0.0 mm 0.00 in/hr0.0 mm/hr 0.00 in0.0 mm
08:40 AM 32.9°F0.5°C 23.0°F-5.0°C 64% 1.3 mph NNW2.1 kmh NNW 2.5 mph4.0 kmh 29.18 in988.1 mb 0.00 in0.0 mm 0.00 in/hr0.0 mm/hr 0.00 in0.0 mm
08:35 AM 32.9°F0.5°C 23.0°F-5.0°C 65% 0.9 mph NNW1.4 kmh NNW 2.5 mph4.0 kmh 29.18 in988.1 mb 0.00 in0.0 mm 0.00 in/hr0.0 mm/hr 0.00 in0.0 mm
08:30 AM 32.9°F0.5°C 23.0°F-5.0°C 66% 1.3 mph N2.1 kmh N 2.2 mph3.5 kmh 29.18 in988.1 mb 0.00 in0.0 mm 0.00 in/hr0.0 mm/hr 0.00 in0.0 mm
08:25 AM 32.9°F0.5°C 24.8°F-4.0°C 68% 1.1 mph N1.8 kmh N 2.7 mph4.3 kmh 29.18 in988.1 mb 0.00 in0.0 mm 0.00 in/hr0.0 mm/hr 0.00 in0.0 mm
08:20 AM 31.8°F-0.1°C 21.2°F-6.0°C 68% 1.3 mph NNW2.1 kmh NNW 2.7 mph4.3 kmh 29.18 in988.1 mb 0.00 in0.0 mm 0.00 in/hr0.0 mm/hr 0.00 in0.0 mm
08:15 AM 31.5°F-0.3°C 21.2°F-6.0°C 68% 1.1 mph NNW1.8 kmh NNW 2.2 mph3.5 kmh 29.18 in988.1 mb 0.00 in0.0 mm 0.00 in/hr0.0 mm/hr 0.00 in0.0 mm
08:10 AM 31.3°F-0.4°C 21.2°F-6.0°C 68% 1.6 mph NNW2.6 kmh NNW 2.2 mph3.5 kmh 29.15 in987.1 mb 0.00 in0.0 mm 0.00 in/hr0.0 mm/hr 0.00 in0.0 mm
08:05 AM 31.3°F-0.4°C 21.2°F-6.0°C 68% 0.9 mph N1.4 kmh N 2.5 mph4.0 kmh 29.15 in987.1 mb 0.00 in0.0 mm 0.00 in/hr0.0 mm/hr 0.00 in0.0 mm
08:00 AM 31.3°F-0.4°C 21.2°F-6.0°C 68% 1.3 mph N2.1 kmh N 2.5 mph4.0 kmh 29.15 in987.1 mb 0.00 in0.0 mm 0.00 in/hr0.0 mm/hr 0.00 in0.0 mm
07:55 AM 31.5°F-0.3°C 21.2°F-6.0°C 68% 0.9 mph N1.4 kmh N 2.5 mph4.0 kmh 29.15 in987.1 mb 0.00 in0.0 mm 0.00 in/hr0.0 mm/hr 0.00 in0.0 mm
07:50 AM 31.6°F-0.2°C 21.2°F-6.0°C 68% 1.1 mph NNW1.8 kmh NNW 2.9 mph4.7 kmh 29.15 in987.1 mb 0.00 in0.0 mm 0.00 in/hr0.0 mm/hr 0.00 in0.0 mm
07:45 AM 31.8°F-0.1°C 21.2°F-6.0°C 68% 1.6 mph NNW2.6 kmh NNW 2.9 mph4.7 kmh 29.15 in987.1 mb 0.00 in0.0 mm 0.00 in/hr0.0 mm/hr 0.00 in0.0 mm
07:40 AM 32.0°F0.0°C 21.2°F-6.0°C 68% 2.0 mph NNW3.2 kmh NNW 2.9 mph4.7 kmh 29.15 in987.1 mb 0.00 in0.0 mm 0.00 in/hr0.0 mm/hr 0.00 in0.0 mm
07:35 AM 32.0°F0.0°C 21.2°F-6.0°C 68% 1.6 mph N2.6 kmh N 2.9 mph4.7 kmh 29.15 in987.1 mb 0.00 in0.0 mm 0.00 in/hr0.0 mm/hr 0.00 in0.0 mm
07:30 AM 32.2°F0.1°C 23.0°F-5.0°C 69% 2.0 mph NNW3.2 kmh NNW 3.4 mph5.5 kmh 29.15 in987.1 mb 0.00 in0.0 mm 0.00 in/hr0.0 mm/hr 0.00 in0.0 mm
07:25 AM 32.2°F0.1°C 23.0°F-5.0°C 69% 2.0 mph NNW3.2 kmh NNW 3.4 mph5.5 kmh 29.15 in987.1 mb 0.00 in0.0 mm 0.00 in/hr0.0 mm/hr 0.00 in0.0 mm
07:20 AM 32.2°F0.1°C 24.8°F-4.0°C 71% 2.5 mph NNW4.0 kmh NNW 3.4 mph5.5 kmh 29.15 in987.1 mb 0.00 in0.0 mm 0.00 in/hr0.0 mm/hr 0.00 in0.0 mm
07:15 AM 32.0°F0.0°C 23.0°F-5.0°C 72% 2.5 mph N4.0 kmh N 3.4 mph5.5 kmh 29.15 in987.1 mb 0.00 in0.0 mm 0.00 in/hr0.0 mm/hr 0.00 in0.0 mm
07:10 AM 32.0°F0.0°C 23.0°F-5.0°C 74% 2.0 mph N3.2 kmh N 4.7 mph7.6 kmh 29.15 in987.1 mb 0.00 in0.0 mm 0.00 in/hr0.0 mm/hr 0.00 in0.0 mm
07:05 AM 32.0°F0.0°C 23.0°F-5.0°C 75% 2.0 mph NNW3.2 kmh NNW 4.7 mph7.6 kmh 29.15 in987.1 mb 0.00 in0.0 mm 0.00 in/hr0.0 mm/hr 0.00 in0.0 mm
07:00 AM 32.0°F0.0°C 23.0°F-5.0°C 75% 1.6 mph NNW2.6 kmh NNW 3.1 mph5.0 kmh 29.15 in987.1 mb 0.00 in0.0 mm 0.00 in/hr0.0 mm/hr 0.00 in0.0 mm
06:55 AM 32.0°F0.0°C 23.0°F-5.0°C 76% 1.6 mph NNW2.6 kmh NNW 3.4 mph5.5 kmh 29.15 in987.1 mb 0.00 in0.0 mm 0.00 in/hr0.0 mm/hr 0.00 in0.0 mm
06:50 AM 32.0°F0.0°C 24.8°F-4.0°C 77% 2.5 mph NNW4.0 kmh NNW 3.4 mph5.5 kmh 29.15 in987.1 mb 0.00 in0.0 mm 0.00 in/hr0.0 mm/hr 0.00 in0.0 mm
06:45 AM 32.0°F0.0°C 24.8°F-4.0°C 78% 2.0 mph NNW3.2 kmh NNW 3.4 mph5.5 kmh 29.15 in987.1 mb 0.00 in0.0 mm 0.00 in/hr0.0 mm/hr 0.00 in0.0 mm
06:40 AM 31.8°F-0.1°C 24.8°F-4.0°C 78% 2.2 mph NNW3.5 kmh NNW 3.4 mph5.5 kmh 29.15 in987.1 mb 0.00 in0.0 mm 0.00 in/hr0.0 mm/hr 0.00 in0.0 mm
06:35 AM 31.8°F-0.1°C 24.8°F-4.0°C 79% 2.0 mph NW3.2 kmh NW 2.7 mph4.3 kmh 29.15 in987.1 mb 0.00 in0.0 mm 0.00 in/hr0.0 mm/hr 0.00 in0.0 mm
06:30 AM 31.8°F-0.1°C 24.8°F-4.0°C 79% 1.3 mph NNW2.1 kmh NNW 2.7 mph4.3 kmh 29.15 in987.1 mb 0.00 in0.0 mm 0.00 in/hr0.0 mm/hr 0.00 in0.0 mm
06:25 AM 31.8°F-0.1°C 24.8°F-4.0°C 79% 0.9 mph NW1.4 kmh NW 3.6 mph5.8 kmh 29.15 in987.1 mb 0.00 in0.0 mm 0.00 in/hr0.0 mm/hr 0.00 in0.0 mm
06:20 AM 31.8°F-0.1°C 24.8°F-4.0°C 79% 2.5 mph NW4.0 kmh NW 3.6 mph5.8 kmh 29.15 in987.1 mb 0.00 in0.0 mm 0.00 in/hr0.0 mm/hr 0.00 in0.0 mm
06:15 AM 31.6°F-0.2°C 24.8°F-4.0°C 78% 1.1 mph NNW1.8 kmh NNW 2.9 mph4.7 kmh 29.15 in987.1 mb 0.00 in0.0 mm 0.00 in/hr0.0 mm/hr 0.00 in0.0 mm
06:10 AM 31.8°F-0.1°C 24.8°F-4.0°C 77% 1.1 mph NNW1.8 kmh NNW 2.0 mph3.2 kmh 29.12 in986.1 mb 0.00 in0.0 mm 0.00 in/hr0.0 mm/hr 0.00 in0.0 mm
06:05 AM 31.8°F-0.1°C 24.8°F-4.0°C 77% 0.9 mph NNW1.4 kmh NNW 2.0 mph3.2 kmh 29.12 in986.1 mb 0.00 in0.0 mm 0.00 in/hr0.0 mm/hr 0.00 in0.0 mm
06:00 AM 31.8°F-0.1°C 23.0°F-5.0°C 76% 0.9 mph NNW1.4 kmh NNW 1.6 mph2.6 kmh 29.12 in986.1 mb 0.00 in0.0 mm 0.00 in/hr0.0 mm/hr 0.00 in0.0 mm
05:55 AM 32.0°F0.0°C 23.0°F-5.0°C 76% Calm Calm 2.0 mph3.2 kmh 29.12 in986.1 mb 0.00 in0.0 mm 0.00 in/hr0.0 mm/hr 0.00 in0.0 mm
05:50 AM 32.0°F0.0°C 23.0°F-5.0°C 76% 1.1 mph NNW1.8 kmh NNW 2.7 mph4.3 kmh 29.12 in986.1 mb 0.00 in0.0 mm 0.00 in/hr0.0 mm/hr 0.00 in0.0 mm
05:45 AM 32.2°F0.1°C 26.6°F-3.0°C 75% 1.1 mph NNW1.8 kmh NNW 2.7 mph4.3 kmh 29.12 in986.1 mb 0.00 in0.0 mm 0.00 in/hr0.0 mm/hr 0.00 in0.0 mm
05:40 AM 32.4°F0.2°C 24.8°F-4.0°C 73% 1.3 mph NNW2.1 kmh NNW 2.7 mph4.3 kmh 29.12 in986.1 mb 0.00 in0.0 mm 0.00 in/hr0.0 mm/hr 0.00 in0.0 mm
05:35 AM 32.4°F0.2°C 24.8°F-4.0°C 72% 1.3 mph N2.1 kmh N 2.7 mph4.3 kmh 29.12 in986.1 mb 0.00 in0.0 mm 0.00 in/hr0.0 mm/hr 0.00 in0.0 mm
05:30 AM 32.5°F0.3°C 24.8°F-4.0°C 72% 1.3 mph N2.1 kmh N 3.6 mph5.8 kmh 29.12 in986.1 mb 0.00 in0.0 mm 0.00 in/hr0.0 mm/hr 0.00 in0.0 mm
05:25 AM 32.5°F0.3°C 24.8°F-4.0°C 71% 2.7 mph N4.3 kmh N 3.6 mph5.8 kmh 29.12 in986.1 mb 0.00 in0.0 mm 0.00 in/hr0.0 mm/hr 0.00 in0.0 mm
05:20 AM 32.5°F0.3°C 24.8°F-4.0°C 71% 2.0 mph N3.2 kmh N 3.1 mph5.0 kmh 29.12 in986.1 mb 0.00 in0.0 mm 0.00 in/hr0.0 mm/hr 0.00 in0.0 mm
05:15 AM 32.7°F0.4°C 24.8°F-4.0°C 70% 1.3 mph N2.1 kmh N 2.7 mph4.3 kmh 29.12 in986.1 mb 0.00 in0.0 mm 0.00 in/hr0.0 mm/hr 0.00 in0.0 mm
05:10 AM 32.7°F0.4°C 24.8°F-4.0°C 70% 1.1 mph N1.8 kmh N 4.3 mph6.9 kmh 29.12 in986.1 mb 0.00 in0.0 mm 0.00 in/hr0.0 mm/hr 0.00 in0.0 mm
05:05 AM 32.7°F0.4°C 24.8°F-4.0°C 70% 2.7 mph NNW4.3 kmh NNW 4.3 mph6.9 kmh 29.12 in986.1 mb 0.00 in0.0 mm 0.00 in/hr0.0 mm/hr 0.00 in0.0 mm
05:00 AM 32.7°F0.4°C 24.8°F-4.0°C 71% 1.1 mph NNW1.8 kmh NNW 2.7 mph4.3 kmh 29.12 in986.1 mb 0.00 in0.0 mm 0.00 in/hr0.0 mm/hr 0.00 in0.0 mm
04:55 AM 32.7°F0.4°C 24.8°F-4.0°C 71% 1.3 mph N2.1 kmh N 2.7 mph4.3 kmh 29.09 in985.1 mb 0.00 in0.0 mm 0.00 in/hr0.0 mm/hr 0.00 in0.0 mm
04:50 AM 32.7°F0.4°C 24.8°F-4.0°C 72% 1.6 mph N2.6 kmh N 3.4 mph5.5 kmh 29.09 in985.1 mb 0.00 in0.0 mm 0.00 in/hr0.0 mm/hr 0.00 in0.0 mm
04:45 AM 32.7°F0.4°C 24.8°F-4.0°C 73% 1.6 mph N2.6 kmh N 3.4 mph5.5 kmh 29.09 in985.1 mb 0.00 in0.0 mm 0.00 in/hr0.0 mm/hr 0.00 in0.0 mm
04:40 AM 32.7°F0.4°C 26.6°F-3.0°C 74% 1.6 mph N2.6 kmh N 3.4 mph5.5 kmh 29.09 in985.1 mb 0.00 in0.0 mm 0.00 in/hr0.0 mm/hr 0.00 in0.0 mm
04:35 AM 32.5°F0.3°C 26.6°F-3.0°C 75% 1.6 mph N2.6 kmh N 2.7 mph4.3 kmh 29.09 in985.1 mb 0.00 in0.0 mm 0.00 in/hr0.0 mm/hr 0.00 in0.0 mm
04:30 AM 32.5°F0.3°C 26.6°F-3.0°C 76% 1.1 mph NNW1.8 kmh NNW 3.6 mph5.8 kmh 29.09 in985.1 mb 0.00 in0.0 mm 0.00 in/hr0.0 mm/hr 0.00 in0.0 mm
04:25 AM 32.5°F0.3°C 26.6°F-3.0°C 76% 2.5 mph NNW4.0 kmh NNW 3.6 mph5.8 kmh 29.09 in985.1 mb 0.00 in0.0 mm 0.00 in/hr0.0 mm/hr 0.00 in0.0 mm
04:20 AM 32.7°F0.4°C 26.6°F-3.0°C 76% 2.2 mph N3.5 kmh N 3.1 mph5.0 kmh 29.09 in985.1 mb 0.00 in0.0 mm 0.00 in/hr0.0 mm/hr 0.00 in0.0 mm
04:15 AM 32.7°F0.4°C 26.6°F-3.0°C 77% 1.6 mph NNW2.6 kmh NNW 5.4 mph8.7 kmh 29.09 in985.1 mb 0.00 in0.0 mm 0.00 in/hr0.0 mm/hr 0.00 in0.0 mm
04:10 AM 32.7°F0.4°C 26.6°F-3.0°C 78% 2.5 mph NW4.0 kmh NW 7.2 mph11.6 kmh 29.06 in984.1 mb 0.00 in0.0 mm 0.00 in/hr0.0 mm/hr 0.00 in0.0 mm
04:05 AM 32.7°F0.4°C 26.6°F-3.0°C 78% 2.9 mph NW4.7 kmh NW 7.2 mph11.6 kmh 29.06 in984.1 mb 0.00 in0.0 mm 0.00 in/hr0.0 mm/hr 0.00 in0.0 mm
04:00 AM 32.9°F0.5°C 26.6°F-3.0°C 77% 2.7 mph NNW4.3 kmh NNW 11.9 mph19.2 kmh 29.06 in984.1 mb 0.00 in0.0 mm 0.00 in/hr0.0 mm/hr 0.00 in0.0 mm
03:55 AM 32.9°F0.5°C 26.6°F-3.0°C 76% 2.5 mph NNW4.0 kmh NNW 11.9 mph19.2 kmh 29.09 in985.1 mb 0.00 in0.0 mm 0.00 in/hr0.0 mm/hr 0.00 in0.0 mm
03:50 AM 33.1°F0.6°C 26.6°F-3.0°C 74% 2.0 mph NNW3.2 kmh NNW 4.0 mph6.4 kmh 29.09 in985.1 mb 0.00 in0.0 mm 0.00 in/hr0.0 mm/hr 0.00 in0.0 mm
03:45 AM 33.1°F0.6°C 26.6°F-3.0°C 73% 2.0 mph NNW3.2 kmh NNW 4.0 mph6.4 kmh 29.09 in985.1 mb 0.00 in0.0 mm 0.00 in/hr0.0 mm/hr 0.00 in0.0 mm
03:40 AM 33.1°F0.6°C 26.6°F-3.0°C 73% 1.6 mph N2.6 kmh N 4.0 mph6.4 kmh 29.09 in985.1 mb 0.00 in0.0 mm 0.00 in/hr0.0 mm/hr 0.00 in0.0 mm
03:35 AM 33.3°F0.7°C 26.6°F-3.0°C 73% 1.3 mph N2.1 kmh N 3.1 mph5.0 kmh 29.09 in985.1 mb 0.00 in0.0 mm 0.00 in/hr0.0 mm/hr 0.00 in0.0 mm
03:30 AM 33.1°F0.6°C 26.6°F-3.0°C 73% 1.6 mph NNW2.6 kmh NNW 3.1 mph5.0 kmh 29.09 in985.1 mb 0.00 in0.0 mm 0.00 in/hr0.0 mm/hr 0.00 in0.0 mm
03:25 AM 33.1°F0.6°C 26.6°F-3.0°C 74% 1.6 mph NNW2.6 kmh NNW 2.7 mph4.3 kmh 29.09 in985.1 mb 0.00 in0.0 mm 0.00 in/hr0.0 mm/hr 0.00 in0.0 mm
03:20 AM 33.1°F0.6°C 26.6°F-3.0°C 75% 1.3 mph NNW2.1 kmh NNW 4.0 mph6.4 kmh 29.09 in985.1 mb 0.00 in0.0 mm 0.00 in/hr0.0 mm/hr 0.00 in0.0 mm
03:15 AM 33.1°F0.6°C 26.6°F-3.0°C 75% 2.2 mph NNW3.5 kmh NNW 4.0 mph6.4 kmh 29.09 in985.1 mb 0.00 in0.0 mm 0.00 in/hr0.0 mm/hr 0.00 in0.0 mm
03:10 AM 33.3°F0.7°C 26.6°F-3.0°C 75% 2.5 mph NNW4.0 kmh NNW 2.9 mph4.7 kmh 29.09 in985.1 mb 0.00 in0.0 mm 0.00 in/hr0.0 mm/hr 0.00 in0.0 mm
03:05 AM 33.1°F0.6°C 26.6°F-3.0°C 76% 2.2 mph NNW3.5 kmh NNW 2.7 mph4.3 kmh 29.09 in985.1 mb 0.00 in0.0 mm 0.00 in/hr0.0 mm/hr 0.00 in0.0 mm
03:00 AM 33.1°F0.6°C 26.6°F-3.0°C 76% 1.6 mph NNW2.6 kmh NNW 6.0 mph9.7 kmh 29.09 in985.1 mb 0.00 in0.0 mm 0.00 in/hr0.0 mm/hr 0.00 in0.0 mm
02:55 AM 33.1°F0.6°C 26.6°F-3.0°C 76% 2.0 mph NNW3.2 kmh NNW 6.0 mph9.7 kmh 29.09 in985.1 mb 0.00 in0.0 mm 0.00 in/hr0.0 mm/hr 0.00 in0.0 mm
02:50 AM 33.1°F0.6°C 26.6°F-3.0°C 76% 1.3 mph NNW2.1 kmh NNW 2.9 mph4.7 kmh 29.09 in985.1 mb 0.00 in0.0 mm 0.00 in/hr0.0 mm/hr 0.00 in0.0 mm
02:45 AM 33.1°F0.6°C 26.6°F-3.0°C 76% 1.3 mph NNW2.1 kmh NNW 2.2 mph3.5 kmh 29.09 in985.1 mb 0.00 in0.0 mm 0.00 in/hr0.0 mm/hr 0.00 in0.0 mm
02:40 AM 33.1°F0.6°C 26.6°F-3.0°C 77% 1.1 mph N1.8 kmh N 2.2 mph3.5 kmh 29.12 in986.1 mb 0.00 in0.0 mm 0.00 in/hr0.0 mm/hr 0.00 in0.0 mm
02:35 AM 33.1°F0.6°C 26.6°F-3.0°C 77% 0.9 mph NNW1.4 kmh NNW 2.7 mph4.3 kmh 29.12 in986.1 mb 0.00 in0.0 mm 0.00 in/hr0.0 mm/hr 0.00 in0.0 mm
02:30 AM 33.1°F0.6°C 26.6°F-3.0°C 77% 2.2 mph NNW3.5 kmh NNW 2.7 mph4.3 kmh 29.12 in986.1 mb 0.00 in0.0 mm 0.00 in/hr0.0 mm/hr 0.00 in0.0 mm
02:25 AM 33.1°F0.6°C 26.6°F-3.0°C 77% 1.6 mph N2.6 kmh N 3.6 mph5.8 kmh 29.09 in985.1 mb 0.00 in0.0 mm 0.00 in/hr0.0 mm/hr 0.00 in0.0 mm
02:20 AM 33.1°F0.6°C 26.6°F-3.0°C 77% 2.0 mph N3.2 kmh N 3.6 mph5.8 kmh 29.09 in985.1 mb 0.00 in0.0 mm 0.00 in/hr0.0 mm/hr 0.00 in0.0 mm
02:15 AM 33.1°F0.6°C 26.6°F-3.0°C 77% 1.1 mph NNW1.8 kmh NNW 3.1 mph5.0 kmh 29.09 in985.1 mb 0.00 in0.0 mm 0.00 in/hr0.0 mm/hr 0.00 in0.0 mm
02:10 AM 33.1°F0.6°C 26.6°F-3.0°C 77% 1.6 mph NNW2.6 kmh NNW 3.4 mph5.5 kmh 29.09 in985.1 mb 0.00 in0.0 mm 0.00 in/hr0.0 mm/hr 0.00 in0.0 mm
02:05 AM 33.1°F0.6°C 26.6°F-3.0°C 77% 1.6 mph N2.6 kmh N 3.4 mph5.5 kmh 29.09 in985.1 mb 0.00 in0.0 mm 0.00 in/hr0.0 mm/hr 0.00 in0.0 mm
02:00 AM 33.1°F0.6°C 26.6°F-3.0°C 77% 1.3 mph NNW2.1 kmh NNW 4.0 mph6.4 kmh 29.09 in985.1 mb 0.00 in0.0 mm 0.00 in/hr0.0 mm/hr 0.00 in0.0 mm
01:55 AM 33.3°F0.7°C 26.6°F-3.0°C 77% 2.0 mph NNW3.2 kmh NNW 4.0 mph6.4 kmh 29.09 in985.1 mb 0.00 in0.0 mm 0.00 in/hr0.0 mm/hr 0.00 in0.0 mm
01:50 AM 33.3°F0.7°C 26.6°F-3.0°C 77% 1.6 mph NNW2.6 kmh NNW 3.4 mph5.5 kmh 29.09 in985.1 mb 0.00 in0.0 mm 0.00 in/hr0.0 mm/hr 0.00 in0.0 mm
01:45 AM 33.3°F0.7°C 26.6°F-3.0°C 77% 1.3 mph NNW2.1 kmh NNW 3.4 mph5.5 kmh 29.09 in985.1 mb 0.00 in0.0 mm 0.00 in/hr0.0 mm/hr 0.00 in0.0 mm
01:40 AM 33.3°F0.7°C 26.6°F-3.0°C 77% 1.6 mph NNW2.6 kmh NNW 3.6 mph5.8 kmh 29.09 in985.1 mb 0.00 in0.0 mm 0.00 in/hr0.0 mm/hr 0.00 in0.0 mm
01:35 AM 33.3°F0.7°C 26.6°F-3.0°C 77% 1.1 mph NNW1.8 kmh NNW 3.6 mph5.8 kmh 29.09 in985.1 mb 0.00 in0.0 mm 0.00 in/hr0.0 mm/hr 0.00 in0.0 mm
01:30 AM 33.3°F0.7°C 26.6°F-3.0°C 77% 1.3 mph NNW2.1 kmh NNW 3.1 mph5.0 kmh 29.09 in985.1 mb 0.00 in0.0 mm 0.00 in/hr0.0 mm/hr 0.00 in0.0 mm
01:25 AM 33.3°F0.7°C 26.6°F-3.0°C 77% 2.2 mph N3.5 kmh N 3.1 mph5.0 kmh 29.06 in984.1 mb 0.00 in0.0 mm 0.00 in/hr0.0 mm/hr 0.00 in0.0 mm
01:20 AM 33.3°F0.7°C 26.6°F-3.0°C 76% 1.6 mph N2.6 kmh N 2.5 mph4.0 kmh 29.06 in984.1 mb 0.00 in0.0 mm 0.00 in/hr0.0 mm/hr 0.00 in0.0 mm
01:15 AM 33.3°F0.7°C 26.6°F-3.0°C 77% 1.3 mph NNW2.1 kmh NNW 2.5 mph4.0 kmh 29.06 in984.1 mb 0.00 in0.0 mm 0.00 in/hr0.0 mm/hr 0.00 in0.0 mm
01:10 AM 33.3°F0.7°C 26.6°F-3.0°C 76% 1.3 mph NNW2.1 kmh NNW 2.5 mph4.0 kmh 29.06 in984.1 mb 0.00 in0.0 mm 0.00 in/hr0.0 mm/hr 0.00 in0.0 mm
01:05 AM 33.3°F0.7°C 26.6°F-3.0°C 77% 1.6 mph NNW2.6 kmh NNW 2.7 mph4.3 kmh 29.06 in984.1 mb 0.00 in0.0 mm 0.00 in/hr0.0 mm/hr 0.00 in0.0 mm
01:00 AM 33.4°F0.8°C 28.4°F-2.0°C 77% 1.6 mph N2.6 kmh N 2.7 mph4.3 kmh 29.06 in984.1 mb 0.00 in0.0 mm 0.00 in/hr0.0 mm/hr 0.00 in0.0 mm
12:55 AM 33.4°F0.8°C 28.4°F-2.0°C 77% 1.6 mph N2.6 kmh N 2.7 mph4.3 kmh 29.06 in984.1 mb 0.00 in0.0 mm 0.00 in/hr0.0 mm/hr 0.00 in0.0 mm
12:50 AM 33.4°F0.8°C 28.4°F-2.0°C 77% 2.0 mph NNW3.2 kmh NNW 4.7 mph7.6 kmh 29.06 in984.1 mb 0.00 in0.0 mm 0.00 in/hr0.0 mm/hr 0.00 in0.0 mm
12:45 AM 33.4°F0.8°C 28.4°F-2.0°C 78% 2.9 mph N4.7 kmh N 4.7 mph7.6 kmh 29.06 in984.1 mb 0.00 in0.0 mm 0.00 in/hr0.0 mm/hr 0.00 in0.0 mm
12:40 AM 33.4°F0.8°C 28.4°F-2.0°C 77% 1.6 mph N2.6 kmh N 3.1 mph5.0 kmh 29.06 in984.1 mb 0.00 in0.0 mm 0.00 in/hr0.0 mm/hr 0.00 in0.0 mm
12:35 AM 33.6°F0.9°C 28.4°F-2.0°C 78% 2.0 mph NNW3.2 kmh NNW 3.1 mph5.0 kmh 29.06 in984.1 mb 0.00 in0.0 mm 0.00 in/hr0.0 mm/hr 0.00 in0.0 mm
12:30 AM 33.6°F0.9°C 28.4°F-2.0°C 78% 2.2 mph NNW3.5 kmh NNW 3.1 mph5.0 kmh 29.06 in984.1 mb 0.00 in0.0 mm 0.00 in/hr0.0 mm/hr 0.00 in0.0 mm
12:25 AM 33.8°F1.0°C 28.4°F-2.0°C 77% 1.3 mph NNW2.1 kmh NNW 3.1 mph5.0 kmh 29.06 in984.1 mb 0.00 in0.0 mm 0.00 in/hr0.0 mm/hr 0.00 in0.0 mm
12:20 AM 33.8°F1.0°C 28.4°F-2.0°C 77% 2.0 mph NNW3.2 kmh NNW 3.8 mph6.1 kmh 29.06 in984.1 mb 0.00 in0.0 mm 0.00 in/hr0.0 mm/hr 0.00 in0.0 mm
12:15 AM 33.8°F1.0°C 28.4°F-2.0°C 77% 2.2 mph NNW3.5 kmh NNW 4.3 mph6.9 kmh 29.06 in984.1 mb 0.00 in0.0 mm 0.00 in/hr0.0 mm/hr 0.00 in0.0 mm
12:10 AM 33.8°F1.0°C 28.4°F-2.0°C 77% 2.5 mph NNW4.0 kmh NNW 4.3 mph6.9 kmh 29.06 in984.1 mb 0.00 in0.0 mm 0.00 in/hr0.0 mm/hr 0.00 in0.0 mm
12:05 AM 33.8°F1.0°C 28.4°F-2.0°C 77% 2.9 mph NNW4.7 kmh NNW 4.9 mph7.9 kmh 29.06 in984.1 mb 0.00 in0.0 mm 0.00 in/hr0.0 mm/hr 0.00 in0.0 mm
12:00 AM 33.8°F1.0°C 28.4°F-2.0°C 77% 2.9 mph NNW4.7 kmh NNW 4.9 mph7.9 kmh 29.06 in984.1 mb 0.00 in0.0 mm 0.00 in/hr0.0 mm/hr 0.00 in0.0 mm